createdAt,value
2022-08-11T04:45:57.245Z,57.38
2022-08-11T04:46:58.475Z,57.68
2022-08-11T04:48:03.592Z,58.19
2022-08-11T04:48:58.200Z,58.19
2022-08-11T04:49:58.182Z,59.50
2022-08-11T04:51:00.710Z,57.89
2022-08-11T04:51:58.184Z,57.58
2022-08-11T04:52:58.156Z,56.95
2022-08-11T04:53:58.140Z,56.85
2022-08-11T04:54:58.127Z,57.35
2022-08-11T04:55:58.127Z,57.05
2022-08-11T04:56:58.120Z,56.35
2022-08-11T04:57:58.097Z,57.43
2022-08-11T04:58:58.089Z,56.52
2022-08-11T04:59:58.074Z,57.12
2022-08-11T05:00:58.051Z,56.42
2022-08-11T05:01:58.115Z,55.62
2022-08-11T05:02:58.038Z,56.29
2022-08-11T05:03:58.031Z,55.69
2022-08-11T05:04:58.018Z,55.69
2022-08-11T05:05:58.012Z,56.20
2022-08-11T05:06:58.013Z,56.40
2022-08-11T05:07:57.987Z,55.99
2022-08-11T05:08:57.970Z,56.70
2022-08-11T05:09:57.963Z,55.99
2022-08-11T05:10:57.967Z,55.39
2022-08-11T05:12:01.800Z,56.29
2022-08-11T05:12:57.934Z,55.39
2022-08-11T05:13:57.924Z,55.49
2022-08-11T05:14:57.907Z,54.66
2022-08-11T05:15:58.013Z,55.46
2022-08-11T05:16:57.896Z,55.06
2022-08-11T05:17:57.890Z,54.66
2022-08-11T05:18:57.861Z,55.06
2022-08-11T05:19:57.855Z,54.35
2022-08-11T05:20:58.826Z,54.66
2022-08-11T05:21:57.855Z,54.63
2022-08-11T05:22:57.829Z,54.53
2022-08-11T05:23:57.817Z,55.76
2022-08-11T05:24:57.799Z,55.06
2022-08-11T05:26:44.111Z,55.46
2022-08-11T05:26:57.796Z,55.66
2022-08-11T05:27:57.779Z,55.56
2022-08-11T05:28:57.758Z,54.75
2022-08-11T05:29:57.746Z,54.33
2022-08-11T05:30:57.733Z,54.93
2022-08-11T05:31:57.748Z,54.23
2022-08-11T05:33:01.725Z,54.20
2022-08-11T05:33:57.704Z,53.60
2022-08-11T05:34:57.698Z,53.70
2022-08-11T05:36:02.362Z,54.00
2022-08-11T05:37:17.208Z,53.07
2022-08-11T05:37:57.666Z,53.37
2022-08-11T05:38:57.651Z,52.67
2022-08-11T05:39:57.682Z,52.67
2022-08-11T05:40:59.919Z,51.97
2022-08-11T05:41:57.625Z,52.24
2022-08-11T05:42:57.610Z,52.14
2022-08-11T05:44:20.446Z,52.24
2022-08-11T05:44:57.594Z,51.54
2022-08-11T05:46:03.838Z,51.54
2022-08-11T05:46:57.584Z,51.51
2022-08-11T05:47:57.550Z,51.92
2022-08-11T05:48:57.546Z,51.61
2022-08-11T05:49:57.980Z,51.01
2022-08-11T05:50:57.521Z,50.89
2022-08-11T05:52:05.584Z,50.59
2022-08-11T05:52:57.614Z,50.79
2022-08-11T05:53:57.487Z,50.68
2022-08-11T05:54:57.486Z,50.29
2022-08-11T05:56:02.949Z,52.47
2022-08-11T05:56:57.481Z,50.99
2022-08-11T05:57:57.448Z,50.26
2022-08-11T05:58:57.441Z,50.76
2022-08-11T05:59:57.424Z,52.37
2022-08-11T06:00:57.418Z,50.86
2022-08-11T06:01:57.501Z,51.37
2022-08-11T06:02:57.404Z,51.17
2022-08-11T06:03:58.304Z,50.46
2022-08-11T06:04:57.380Z,50.63
2022-08-11T06:05:57.361Z,50.13
2022-08-11T06:06:57.371Z,49.93
2022-08-11T06:07:57.546Z,50.01
2022-08-11T06:08:57.335Z,49.71
2022-08-11T06:09:57.314Z,49.71
2022-08-11T06:10:57.311Z,49.81
2022-08-11T06:11:57.315Z,50.31
2022-08-11T06:12:57.288Z,50.31
2022-08-11T06:13:57.280Z,50.11
2022-08-11T06:14:57.275Z,49.08
2022-08-11T06:15:57.274Z,49.08
2022-08-11T06:16:57.253Z,49.66
2022-08-11T06:17:57.231Z,49.87
2022-08-11T06:18:57.230Z,48.86
2022-08-11T06:19:57.212Z,48.86
2022-08-11T06:20:57.232Z,50.57
2022-08-11T06:21:57.195Z,50.46
2022-08-11T06:22:57.198Z,49.46
2022-08-11T06:23:57.168Z,49.87
2022-08-11T06:24:57.162Z,49.57
2022-08-11T06:25:57.165Z,49.04
2022-08-11T06:27:13.661Z,48.94
2022-08-11T06:27:57.125Z,48.34
2022-08-11T06:28:57.138Z,47.42
2022-08-11T06:29:57.103Z,47.52
2022-08-11T06:30:57.109Z,47.52
2022-08-11T06:31:57.082Z,47.79
2022-08-11T06:32:57.080Z,48.39
2022-08-11T06:33:57.073Z,47.49
2022-08-11T06:34:57.061Z,46.09
2022-08-11T06:35:57.055Z,45.69
2022-08-11T06:36:57.027Z,46.17
2022-08-11T06:37:58.952Z,46.07
2022-08-11T06:38:57.004Z,47.05
2022-08-11T06:39:57.080Z,46.95
2022-08-11T06:40:56.993Z,45.25
2022-08-11T06:41:56.968Z,45.75
2022-08-11T06:42:56.962Z,44.85
2022-08-11T06:43:58.952Z,45.85
2022-08-11T06:44:56.942Z,46.35
2022-08-11T06:45:56.941Z,46.92
2022-08-11T06:46:56.914Z,47.22
2022-08-11T06:47:56.906Z,48.63
2022-08-11T06:48:56.895Z,48.02
2022-08-11T06:49:56.880Z,45.85
2022-08-11T06:50:56.893Z,44.33
2022-08-11T06:51:56.860Z,45.43
2022-08-11T06:52:56.852Z,46.01
2022-08-11T06:54:04.283Z,46.31
2022-08-11T06:54:56.834Z,45.71
2022-08-11T06:55:58.973Z,45.40
2022-08-11T06:57:26.341Z,44.91
2022-08-11T06:57:56.799Z,47.18
2022-08-11T06:58:56.788Z,45.09
2022-08-11T06:59:56.770Z,44.89
2022-08-11T07:00:56.780Z,45.39
2022-08-11T07:01:56.796Z,44.09
2022-08-11T07:02:56.746Z,43.59
2022-08-11T07:03:56.726Z,44.38
2022-08-11T07:04:56.718Z,43.57
2022-08-11T07:05:56.719Z,43.67
2022-08-11T07:06:56.702Z,44.27
2022-08-11T07:07:56.700Z,45.56
2022-08-11T07:08:56.676Z,44.15
2022-08-11T07:09:56.665Z,42.85
2022-08-11T07:10:56.667Z,43.25
2022-08-11T07:11:56.642Z,42.45
2022-08-11T07:12:56.640Z,43.23
2022-08-11T07:13:56.626Z,42.13
2022-08-11T07:15:00.626Z,44.82
2022-08-11T07:16:12.751Z,43.33
2022-08-11T07:16:56.602Z,43.33
2022-08-11T07:17:56.602Z,43.82
2022-08-11T07:18:56.572Z,44.70
2022-08-11T07:19:56.827Z,44.80
2022-08-11T07:21:01.726Z,42.51
2022-08-11T07:22:02.373Z,42.41
2022-08-11T07:22:56.533Z,43.21
2022-08-11T07:23:56.516Z,41.12
2022-08-11T07:24:59.561Z,43.08
2022-08-11T07:25:56.509Z,43.29
2022-08-11T07:26:56.493Z,41.89
2022-08-11T07:27:56.473Z,41.69
2022-08-11T07:28:56.469Z,42.86
2022-08-11T07:29:56.449Z,41.58
2022-08-11T07:30:56.455Z,42.07
2022-08-11T07:31:56.428Z,41.97
2022-08-11T07:32:56.429Z,41.67
2022-08-11T07:34:06.408Z,42.65
2022-08-11T07:34:56.411Z,43.54
2022-08-11T07:35:56.412Z,40.76
2022-08-11T07:36:56.382Z,41.25
2022-08-11T07:38:01.841Z,41.06
2022-08-11T07:38:56.367Z,41.36
2022-08-11T07:39:56.439Z,41.66
2022-08-11T07:40:56.356Z,40.34
2022-08-11T07:41:56.323Z,39.95
2022-08-11T07:42:56.316Z,40.74
2022-08-11T07:43:56.313Z,41.71
2022-08-11T07:44:56.299Z,41.82
2022-08-11T07:45:56.288Z,40.62
2022-08-11T07:46:56.278Z,41.61
2022-08-11T07:47:56.260Z,39.43
2022-08-11T07:48:56.253Z,38.64
2022-08-11T07:49:56.236Z,39.90
2022-08-11T07:50:56.365Z,40.41
2022-08-11T07:51:56.217Z,40.20
2022-08-11T07:52:56.206Z,39.41
2022-08-11T07:53:58.672Z,39.71
2022-08-11T07:54:56.211Z,40.38
2022-08-11T07:55:56.185Z,38.90
2022-08-11T07:57:09.690Z,41.17
2022-08-11T07:58:14.252Z,39.29
2022-08-11T07:59:00.606Z,38.00
2022-08-11T08:00:03.529Z,38.90
2022-08-11T08:00:56.306Z,39.89
2022-08-11T08:01:56.183Z,39.39
2022-08-11T08:02:56.104Z,39.59
2022-08-11T08:03:56.088Z,39.07
2022-08-11T08:04:56.096Z,38.68
2022-08-11T08:05:56.064Z,38.09
2022-08-11T08:06:56.064Z,40.47
2022-08-11T08:07:56.043Z,39.75
2022-08-11T08:08:56.042Z,38.96
2022-08-11T08:09:56.037Z,40.64
2022-08-11T08:10:56.014Z,38.94
2022-08-11T08:11:56.002Z,36.76
2022-08-11T08:12:56.010Z,37.85
2022-08-11T08:13:55.981Z,38.64
2022-08-11T08:14:55.984Z,38.03
2022-08-11T08:15:55.958Z,36.64
2022-08-11T08:16:55.958Z,37.63
2022-08-11T08:18:10.098Z,38.62
2022-08-11T08:18:55.948Z,38.11
2022-08-11T08:19:55.926Z,37.32
2022-08-11T08:20:55.911Z,37.41
2022-08-11T08:22:06.083Z,37.12
2022-08-11T08:22:55.918Z,37.32
2022-08-11T08:23:56.380Z,36.80
2022-08-11T08:24:55.883Z,40.86
2022-08-11T08:25:55.852Z,36.19
2022-08-11T08:26:55.846Z,38.67
2022-08-11T08:27:55.842Z,36.47
2022-08-11T08:28:55.820Z,35.58
2022-08-11T08:29:55.820Z,37.36
2022-08-11T08:30:55.815Z,35.09
2022-08-11T08:31:55.784Z,35.66
2022-08-11T08:32:55.783Z,35.38
2022-08-11T08:33:55.781Z,36.16
2022-08-11T08:34:55.771Z,34.97
2022-08-11T08:35:55.991Z,38.23
2022-08-11T08:36:55.741Z,35.57
2022-08-11T08:37:56.144Z,35.66
2022-08-11T08:38:55.728Z,34.97
2022-08-11T08:39:55.788Z,35.15
2022-08-11T08:40:56.555Z,35.85
2022-08-11T08:41:55.680Z,35.05
2022-08-11T08:42:55.690Z,35.33
2022-08-11T08:43:57.760Z,34.74
2022-08-11T08:44:55.677Z,36.00
2022-08-11T08:45:55.640Z,34.33
2022-08-11T08:46:55.630Z,34.92
2022-08-11T08:47:55.614Z,33.64
2022-08-11T08:48:55.611Z,33.53
2022-08-11T08:49:55.590Z,35.89
2022-08-11T08:50:55.606Z,34.30
2022-08-11T08:52:02.000Z,34.49
2022-08-11T08:52:55.573Z,33.91
2022-08-11T08:53:56.542Z,32.01
2022-08-11T08:54:55.561Z,32.87
2022-08-11T08:55:55.534Z,31.97
2022-08-11T08:56:55.524Z,32.15
2022-08-11T08:57:55.507Z,33.00
2022-08-11T08:58:55.505Z,32.78
2022-08-11T08:59:55.500Z,30.19
2022-08-11T09:00:55.555Z,28.53
2022-08-11T09:01:55.464Z,28.74
2022-08-11T09:02:55.458Z,28.83
2022-08-11T09:04:06.968Z,30.36
2022-08-11T09:04:55.470Z,29.08
2022-08-11T09:05:55.454Z,29.17
2022-08-11T09:06:55.427Z,28.26
2022-08-11T09:07:55.406Z,27.64
2022-08-11T09:08:55.402Z,27.33
2022-08-11T09:09:55.407Z,26.24
2022-08-11T09:10:55.381Z,26.23
2022-08-11T09:11:55.367Z,26.09
2022-08-11T09:12:55.360Z,26.00
2022-08-11T09:14:05.737Z,25.88
2022-08-11T09:14:55.364Z,25.49
2022-08-11T09:15:56.465Z,25.57
2022-08-11T09:16:55.325Z,25.36
2022-08-11T09:17:55.307Z,24.57
2022-08-11T09:18:55.306Z,25.46
2022-08-11T09:19:56.705Z,26.32
2022-08-11T09:20:55.283Z,25.14
2022-08-11T09:21:55.268Z,23.47
2022-08-11T09:23:29.586Z,23.56
2022-08-11T09:24:17.070Z,24.04
2022-08-11T09:24:55.260Z,24.82
2022-08-11T09:25:55.226Z,24.80
2022-08-11T09:26:55.221Z,24.49
2022-08-11T09:27:55.235Z,22.44
2022-08-11T09:28:55.201Z,23.52
2022-08-11T09:29:55.203Z,23.61
2022-08-11T09:30:55.177Z,22.53
2022-08-11T09:31:55.166Z,23.10
2022-08-11T09:32:55.158Z,21.05
2022-08-11T09:33:55.148Z,22.02
2022-08-11T09:34:55.155Z,22.00
2022-08-11T09:35:55.120Z,20.07
2022-08-11T09:36:55.115Z,22.42
2022-08-11T09:37:56.517Z,22.37
2022-08-11T09:38:55.099Z,21.69
2022-08-11T09:39:55.152Z,23.13
2022-08-11T09:40:57.091Z,22.16
2022-08-11T09:41:55.635Z,21.89
2022-08-11T09:42:55.066Z,22.08
2022-08-11T09:43:55.044Z,23.05
2022-08-11T09:44:55.058Z,23.13
2022-08-11T09:45:55.019Z,21.79
2022-08-11T09:46:55.090Z,22.00
2022-08-11T09:47:54.998Z,24.51
2022-08-11T09:48:54.997Z,21.85
2022-08-11T09:49:54.994Z,22.53
2022-08-11T09:50:54.965Z,21.65
2022-08-11T09:52:02.297Z,19.21
2022-08-11T09:53:34.977Z,22.31
2022-08-11T09:54:03.502Z,20.75
2022-08-11T09:54:54.944Z,19.89
2022-08-11T09:55:54.921Z,19.79
2022-08-11T09:56:54.909Z,22.14
2022-08-11T09:57:55.162Z,21.64
2022-08-11T09:58:54.887Z,19.19
2022-08-11T10:00:12.965Z,19.96
2022-08-11T10:00:54.931Z,19.60
2022-08-11T10:01:54.858Z,21.93
2022-08-11T10:02:54.844Z,20.55
2022-08-11T10:03:54.837Z,21.43
2022-08-11T10:04:54.824Z,20.94
2022-08-11T10:05:54.835Z,20.57
2022-08-11T10:06:55.331Z,21.00
2022-08-11T10:07:54.799Z,21.29
2022-08-11T10:08:54.786Z,21.09
2022-08-11T10:09:54.781Z,21.08
2022-08-11T10:10:54.779Z,21.06
2022-08-11T10:11:57.786Z,20.26
2022-08-11T10:12:54.742Z,18.70
2022-08-11T10:14:32.662Z,19.38
2022-08-11T10:14:54.738Z,19.76
2022-08-11T10:16:02.341Z,23.54
2022-08-11T10:16:54.708Z,19.09
2022-08-11T10:17:54.722Z,20.12
2022-08-11T10:18:54.687Z,21.57
2022-08-11T10:20:05.421Z,20.71
2022-08-11T10:20:54.668Z,21.27
2022-08-11T10:21:54.662Z,19.64
2022-08-11T10:22:54.642Z,20.70
2022-08-11T10:24:01.034Z,20.32
2022-08-11T10:24:54.640Z,20.83
2022-08-11T10:25:54.618Z,23.27
2022-08-11T10:26:54.963Z,22.20
2022-08-11T10:28:28.982Z,20.23
2022-08-11T10:29:12.061Z,21.98
2022-08-11T10:29:54.599Z,21.28
2022-08-11T10:30:54.563Z,21.37
2022-08-11T10:31:57.021Z,23.60
2022-08-11T10:32:58.509Z,19.50
2022-08-11T10:33:58.947Z,19.10
2022-08-11T10:34:58.020Z,20.67
2022-08-11T10:35:54.518Z,22.02
2022-08-11T10:36:54.501Z,21.81
2022-08-11T10:38:08.276Z,20.43
2022-08-11T10:38:54.490Z,20.32
2022-08-11T10:39:54.541Z,19.63
2022-08-11T10:40:54.466Z,19.55
2022-08-11T10:42:06.780Z,19.75
2022-08-11T10:42:58.203Z,20.34
2022-08-11T10:44:01.552Z,19.85
2022-08-11T10:44:54.427Z,21.09
2022-08-11T10:45:54.432Z,19.55
2022-08-11T10:46:54.400Z,19.45
2022-08-11T10:47:54.397Z,20.31
2022-08-11T10:48:54.381Z,18.01
2022-08-11T10:49:54.378Z,20.83
2022-08-11T10:50:54.377Z,19.96
2022-08-11T10:51:54.358Z,20.24
2022-08-11T10:52:54.341Z,20.46
2022-08-11T10:53:54.338Z,20.57
2022-08-11T10:54:54.319Z,24.16
2022-08-11T10:55:54.340Z,20.83
2022-08-11T10:56:54.304Z,20.25
2022-08-11T10:58:04.183Z,21.20
2022-08-11T10:58:54.294Z,19.73
2022-08-11T10:59:54.281Z,20.13
2022-08-11T11:00:54.293Z,19.26
2022-08-11T11:01:54.281Z,18.98
2022-08-11T11:03:21.940Z,20.51
2022-08-11T11:03:54.248Z,19.64
2022-08-11T11:04:54.226Z,19.86
2022-08-11T11:06:27.464Z,22.17
2022-08-11T11:06:54.286Z,19.46
2022-08-11T11:07:54.207Z,18.02
2022-08-11T11:08:57.491Z,18.51
2022-08-11T11:09:54.188Z,21.12
2022-08-11T11:10:54.179Z,19.46
2022-08-11T11:11:54.157Z,19.85
2022-08-11T11:12:54.140Z,19.68
2022-08-11T11:13:55.278Z,19.91
2022-08-11T11:14:58.764Z,22.02
2022-08-11T11:15:54.133Z,21.02
2022-08-11T11:16:54.101Z,18.87
2022-08-11T11:17:54.109Z,17.70
2022-08-11T11:19:00.691Z,18.57
2022-08-11T11:19:54.106Z,19.25
2022-08-11T11:20:54.072Z,19.43
2022-08-11T11:21:54.059Z,19.93
2022-08-11T11:22:54.048Z,18.51
2022-08-11T11:23:54.043Z,19.00
2022-08-11T11:24:54.043Z,19.78
2022-08-11T11:25:57.116Z,19.96
2022-08-11T11:26:54.007Z,19.46
2022-08-11T11:27:53.994Z,20.21
2022-08-11T11:28:53.983Z,19.55
2022-08-11T11:29:53.999Z,18.76
2022-08-11T11:30:53.966Z,18.76
2022-08-11T11:31:53.996Z,18.09
2022-08-11T11:32:53.944Z,19.58
2022-08-11T11:34:06.084Z,19.28
2022-08-11T11:34:54.161Z,20.06
2022-08-11T11:35:53.918Z,19.75
2022-08-11T11:36:53.908Z,19.06
2022-08-11T11:38:03.571Z,20.52
2022-08-11T11:38:53.901Z,20.03
2022-08-11T11:39:53.945Z,19.33
2022-08-11T11:40:53.879Z,18.73
2022-08-11T11:41:53.859Z,19.60
2022-08-11T11:42:53.845Z,19.20
2022-08-11T11:43:53.849Z,17.10
2022-08-11T11:44:56.009Z,19.09
2022-08-11T11:45:53.821Z,19.67
2022-08-11T11:46:53.808Z,20.34
2022-08-11T11:47:53.999Z,17.74
2022-08-11T11:48:53.817Z,19.22
2022-08-11T11:49:53.797Z,20.19
2022-08-11T11:50:58.135Z,20.37
2022-08-11T11:51:53.764Z,19.51
2022-08-11T11:52:53.745Z,19.02
2022-08-11T11:53:53.741Z,21.05
2022-08-11T11:54:53.741Z,21.43
2022-08-11T11:55:53.722Z,19.65
2022-08-11T11:56:53.704Z,18.85
2022-08-11T11:57:58.612Z,16.82
2022-08-11T11:58:53.690Z,17.98
2022-08-11T11:59:53.691Z,17.77
2022-08-11T12:00:53.670Z,18.84
2022-08-11T12:01:53.659Z,19.32
2022-08-11T12:02:53.674Z,18.25
2022-08-11T12:03:53.641Z,20.31
2022-08-11T12:04:53.635Z,19.43
2022-08-11T12:05:53.616Z,17.98
2022-08-11T12:06:53.607Z,18.28
2022-08-11T12:07:56.856Z,19.85
2022-08-11T12:08:53.590Z,20.15
2022-08-11T12:09:53.589Z,19.09
2022-08-11T12:10:53.567Z,19.24
2022-08-11T12:11:53.566Z,19.62
2022-08-11T12:12:53.545Z,21.05
2022-08-11T12:13:53.540Z,19.32
2022-08-11T12:14:53.537Z,20.86
2022-08-11T12:16:31.139Z,18.49
2022-08-11T12:16:53.517Z,18.21
2022-08-11T12:17:53.508Z,19.47
2022-08-11T12:18:53.561Z,18.68
2022-08-11T12:19:53.499Z,17.79
2022-08-11T12:20:53.463Z,17.98
2022-08-11T12:21:53.456Z,18.65
2022-08-11T12:22:53.446Z,17.68
2022-08-11T12:23:53.436Z,17.69
2022-08-11T12:24:53.439Z,19.71
2022-08-11T12:26:16.289Z,17.12
2022-08-11T12:27:14.669Z,17.74
2022-08-11T12:27:53.409Z,20.47
2022-08-11T12:28:53.382Z,19.30
2022-08-11T12:29:55.586Z,18.82
2022-08-11T12:30:54.202Z,18.81
2022-08-11T12:31:53.357Z,19.20
2022-08-11T12:32:53.337Z,20.08
2022-08-11T12:33:53.340Z,19.84
2022-08-11T12:34:53.336Z,21.03
2022-08-11T12:36:01.222Z,21.88
2022-08-11T12:36:53.324Z,21.22
2022-08-11T12:37:57.296Z,22.66
2022-08-11T12:38:53.280Z,20.22
2022-08-11T12:40:16.219Z,20.71
2022-08-11T12:41:53.357Z,20.67
2022-08-11T12:42:55.618Z,19.19
2022-08-11T12:43:57.177Z,20.74
2022-08-11T12:44:53.235Z,20.25
2022-08-11T12:45:53.218Z,18.80
2022-08-11T12:46:53.198Z,20.65
2022-08-11T12:48:57.410Z,20.64
2022-08-11T12:49:05.950Z,18.74
2022-08-11T12:49:53.193Z,21.75
2022-08-11T12:50:53.159Z,20.17
2022-08-11T12:52:06.815Z,18.79
2022-08-11T12:52:53.140Z,17.92
2022-08-11T12:53:53.146Z,18.53
2022-08-11T12:54:53.137Z,19.16
2022-08-11T12:56:03.627Z,20.34
2022-08-11T12:56:53.108Z,19.39
2022-08-11T12:57:53.090Z,20.66
2022-08-11T12:58:53.091Z,20.92
2022-08-11T12:59:53.093Z,19.35
2022-08-11T13:00:53.157Z,21.12
2022-08-11T13:01:53.056Z,21.53
2022-08-11T13:02:53.038Z,20.16
2022-08-11T13:03:56.706Z,21.82
2022-08-11T13:04:53.030Z,21.25
2022-08-11T13:05:53.012Z,24.46
2022-08-11T13:06:52.998Z,23.19
2022-08-11T13:07:53.175Z,20.58
2022-08-11T13:08:53.297Z,21.78
2022-08-11T13:09:52.989Z,22.75
2022-08-11T13:10:52.959Z,23.03
2022-08-11T13:11:55.630Z,22.25
2022-08-11T13:12:52.940Z,21.47
2022-08-11T13:13:57.622Z,23.82
2022-08-11T13:14:52.948Z,23.71
2022-08-11T13:15:52.929Z,22.24
2022-08-11T13:16:52.902Z,22.83
2022-08-11T13:17:52.894Z,22.25
2022-08-11T13:18:53.461Z,21.96
2022-08-11T13:19:52.890Z,22.94
2022-08-11T13:20:52.862Z,22.64
2022-08-11T13:21:52.855Z,22.96
2022-08-11T13:22:52.838Z,22.37
2022-08-11T13:24:01.179Z,23.37
2022-08-11T13:24:52.843Z,23.18
2022-08-11T13:25:52.816Z,23.37
2022-08-11T13:26:52.799Z,24.81
2022-08-11T13:28:52.779Z,23.82
2022-08-11T13:29:52.790Z,24.00
2022-08-11T13:30:52.763Z,22.13
2022-08-11T13:31:52.777Z,22.03
2022-08-11T13:32:52.743Z,22.53
2022-08-11T13:33:52.791Z,22.64
2022-08-11T13:34:52.736Z,22.96
2022-08-11T13:35:52.723Z,23.44
2022-08-11T13:36:52.986Z,22.17
2022-08-11T13:38:18.927Z,23.44
2022-08-11T13:38:52.687Z,21.68
2022-08-11T13:39:52.740Z,24.42
2022-08-11T13:40:56.096Z,23.36
2022-08-11T13:41:52.657Z,23.96
2022-08-11T13:42:52.642Z,24.04
2022-08-11T13:43:52.640Z,22.86
2022-08-11T13:44:52.634Z,23.26
2022-08-11T13:45:52.612Z,22.76
2022-08-11T13:46:53.051Z,23.73
2022-08-11T13:47:52.597Z,22.46
2022-08-11T13:48:52.579Z,23.24
2022-08-11T13:49:52.598Z,22.09
2022-08-11T13:50:52.559Z,22.10
2022-08-11T13:51:52.577Z,23.76
2022-08-11T13:52:53.350Z,22.77
2022-08-11T13:53:52.538Z,22.48
2022-08-11T13:54:52.540Z,22.20
2022-08-11T13:55:52.734Z,21.92
2022-08-11T13:56:52.500Z,22.39
2022-08-11T13:58:08.234Z,23.27
2022-08-11T13:58:54.005Z,23.28
2022-08-11T13:59:52.953Z,24.75
2022-08-11T14:00:52.716Z,25.23
2022-08-11T14:02:21.346Z,23.48
2022-08-11T14:02:52.499Z,22.99
2022-08-11T14:04:31.153Z,24.26
2022-08-11T14:04:52.444Z,23.97
2022-08-11T14:05:52.420Z,23.77
2022-08-11T14:06:52.405Z,23.77
2022-08-11T14:07:52.396Z,23.68
2022-08-11T14:08:52.388Z,23.19
2022-08-11T14:09:54.010Z,23.10
2022-08-11T14:10:52.368Z,24.96
2022-08-11T14:12:20.347Z,22.91
2022-08-11T14:12:52.356Z,23.00
2022-08-11T14:13:52.335Z,23.21
2022-08-11T14:14:52.354Z,23.80
2022-08-11T14:15:52.316Z,23.20
2022-08-11T14:16:52.312Z,23.97
2022-08-11T14:17:52.457Z,22.88
2022-08-11T14:18:52.293Z,22.59
2022-08-11T14:19:52.285Z,22.31
2022-08-11T14:20:52.266Z,23.31
2022-08-11T14:21:54.289Z,23.60
2022-08-11T14:22:52.249Z,24.48
2022-08-11T14:23:52.233Z,25.07
2022-08-11T14:24:52.247Z,23.69
2022-08-11T14:26:00.929Z,22.41
2022-08-11T14:26:52.216Z,22.61
2022-08-11T14:28:32.462Z,23.39
2022-08-11T14:28:52.488Z,22.91
2022-08-11T14:29:52.190Z,23.10
2022-08-11T14:30:52.168Z,24.27
2022-08-11T14:31:52.150Z,23.69
2022-08-11T14:32:55.607Z,23.49
2022-08-11T14:33:59.425Z,24.58
2022-08-11T14:34:52.155Z,23.00
2022-08-11T14:35:52.111Z,23.80
2022-08-11T14:36:52.110Z,24.96
2022-08-11T14:37:52.095Z,23.39
2022-08-11T14:38:52.089Z,24.66
2022-08-11T14:39:52.181Z,24.97
2022-08-11T14:40:52.069Z,23.99
2022-08-11T14:42:10.302Z,25.76
2022-08-11T14:42:52.054Z,24.29
2022-08-11T14:44:14.277Z,24.58
2022-08-11T14:44:52.050Z,24.86
2022-08-11T14:45:54.288Z,25.06
2022-08-11T14:46:52.016Z,24.57
2022-08-11T14:47:51.992Z,24.66
2022-08-11T14:48:51.989Z,24.66
2022-08-11T14:49:58.434Z,24.07
2022-08-11T14:50:51.975Z,24.36
2022-08-11T14:51:51.957Z,24.55
2022-08-11T14:52:51.951Z,23.88
2022-08-11T14:53:58.893Z,26.23
2022-08-11T14:54:51.953Z,23.60
2022-08-11T14:55:51.910Z,23.50
2022-08-11T14:56:53.251Z,23.99
2022-08-11T14:57:55.273Z,24.01
2022-08-11T14:58:51.889Z,23.99
2022-08-11T14:59:51.873Z,24.19
2022-08-11T15:00:51.918Z,24.01
2022-08-11T15:01:51.852Z,25.37
2022-08-11T15:02:51.849Z,26.05
2022-08-11T15:04:29.750Z,24.38
2022-08-11T15:04:51.835Z,26.82
2022-08-11T15:05:57.089Z,26.05
2022-08-11T15:06:51.810Z,25.07
2022-08-11T15:07:51.788Z,25.56
2022-08-11T15:08:51.793Z,26.34
2022-08-11T15:10:51.790Z,26.35
2022-08-11T15:11:51.754Z,27.12
2022-08-11T15:12:51.761Z,26.34
2022-08-11T15:13:51.733Z,25.35
2022-08-11T15:14:56.164Z,23.79
2022-08-11T15:15:51.733Z,24.47
2022-08-11T15:16:51.705Z,23.90
2022-08-11T15:17:51.694Z,26.06
2022-08-11T15:18:51.687Z,26.46
2022-08-11T15:19:51.679Z,26.27
2022-08-11T15:20:53.708Z,25.28
2022-08-11T15:21:51.654Z,26.35
2022-08-11T15:22:51.650Z,26.75
2022-08-11T15:23:51.637Z,27.42
2022-08-11T15:24:51.649Z,26.64
2022-08-11T15:25:51.615Z,25.37
2022-08-11T15:26:51.609Z,24.58
2022-08-11T15:27:51.592Z,24.87
2022-08-11T15:28:51.589Z,24.98
2022-08-11T15:29:51.588Z,26.26
2022-08-11T15:30:51.569Z,25.87
2022-08-11T15:31:51.552Z,25.28
2022-08-11T15:32:51.554Z,25.67
2022-08-11T15:33:51.538Z,24.98
2022-08-11T15:34:51.543Z,25.48
2022-08-11T15:35:51.516Z,26.55
2022-08-11T15:36:51.508Z,25.78
2022-08-11T15:37:51.493Z,25.68
2022-08-11T15:38:55.179Z,26.09
2022-08-11T15:39:51.532Z,25.99
2022-08-11T15:40:51.467Z,26.48
2022-08-11T15:41:54.232Z,27.08
2022-08-11T15:42:51.449Z,25.60
2022-08-11T15:43:51.431Z,25.99
2022-08-11T15:45:06.701Z,26.87
2022-08-11T15:45:51.419Z,27.07
2022-08-11T15:46:52.530Z,25.50
2022-08-11T15:47:51.395Z,26.28
2022-08-11T15:48:51.388Z,25.99
2022-08-11T15:50:12.110Z,26.38
2022-08-11T15:50:51.373Z,26.87
2022-08-11T15:51:51.352Z,26.96
2022-08-11T15:52:51.347Z,25.50
2022-08-11T15:53:56.938Z,28.26
2022-08-11T15:54:51.346Z,27.85
2022-08-11T15:55:51.308Z,27.07
2022-08-11T15:56:51.306Z,26.28
2022-08-11T15:57:51.289Z,28.05
2022-08-11T15:59:28.118Z,27.64
2022-08-11T15:59:51.319Z,27.64
2022-08-11T16:00:59.035Z,25.98
2022-08-11T16:01:51.292Z,27.26
2022-08-11T16:02:51.249Z,26.17
2022-08-11T16:04:07.677Z,26.67
2022-08-11T16:04:51.246Z,26.09
2022-08-11T16:05:53.221Z,26.96
2022-08-11T16:06:51.212Z,26.76
2022-08-11T16:07:51.227Z,27.64
2022-08-11T16:08:51.202Z,26.09
2022-08-11T16:09:51.870Z,25.99
2022-08-11T16:10:51.160Z,25.40
2022-08-11T16:11:51.145Z,26.28
2022-08-11T16:12:51.141Z,27.36
2022-08-11T16:13:51.124Z,26.58
2022-08-11T16:14:51.130Z,26.38
2022-08-11T16:15:51.107Z,25.60
2022-08-11T16:16:52.463Z,26.58
2022-08-11T16:17:51.088Z,26.58
2022-08-11T16:18:51.834Z,26.78
2022-08-11T16:19:51.082Z,26.76
2022-08-11T16:20:51.059Z,25.01
2022-08-11T16:21:51.041Z,25.60
2022-08-11T16:22:55.168Z,27.18
2022-08-11T16:23:51.025Z,25.61
2022-08-11T16:27:02.757Z,26.29
2022-08-11T16:27:13.929Z,26.98
2022-08-11T16:27:23.914Z,27.37
2022-08-11T16:28:19.110Z,27.87
2022-08-11T16:29:19.113Z,26.89
2022-08-11T16:30:19.084Z,26.69
2022-08-11T16:31:19.080Z,26.98
2022-08-11T16:32:19.063Z,27.37
2022-08-11T16:33:48.129Z,26.50
2022-08-11T16:34:22.325Z,25.61
2022-08-11T16:35:19.047Z,26.38
2022-08-11T16:36:19.031Z,26.50
2022-08-11T16:37:19.018Z,26.79
2022-08-11T16:38:19.057Z,27.18
2022-08-11T16:39:19.100Z,25.61
2022-08-11T16:40:18.980Z,25.90
2022-08-11T16:41:18.981Z,25.61
2022-08-11T16:43:06.387Z,25.90
2022-08-11T16:43:18.962Z,26.29
2022-08-11T16:44:18.957Z,26.50
2022-08-11T16:45:18.939Z,26.20
2022-08-11T16:46:18.921Z,25.81
2022-08-11T16:48:02.099Z,26.40
2022-08-11T16:48:35.755Z,25.43
2022-08-11T16:49:18.916Z,26.61
2022-08-11T16:50:18.879Z,26.50
2022-08-11T16:51:18.873Z,25.62
2022-08-11T16:52:18.855Z,26.69
2022-08-11T16:53:18.855Z,28.26
2022-08-11T16:54:18.848Z,28.16
2022-08-11T16:55:51.484Z,26.10
2022-08-11T16:56:18.820Z,25.33
2022-08-11T16:57:18.825Z,27.39
2022-08-11T16:58:18.797Z,28.08
2022-08-11T16:59:18.804Z,26.21
2022-08-11T17:00:18.775Z,26.51
2022-08-11T17:01:18.839Z,27.01
2022-08-11T17:02:18.754Z,27.60
2022-08-11T17:03:18.748Z,27.99
2022-08-11T17:04:18.750Z,26.52
2022-08-11T17:05:18.729Z,28.09
2022-08-11T17:06:18.718Z,26.72
2022-08-11T17:07:23.910Z,26.81
2022-08-11T17:08:18.700Z,26.01
2022-08-11T17:09:18.701Z,25.73
2022-08-11T17:10:38.243Z,26.14
2022-08-11T17:11:18.677Z,26.14
2022-08-11T17:12:18.648Z,26.63
2022-08-11T17:13:18.682Z,26.04
2022-08-11T17:14:18.645Z,25.95
2022-08-11T17:15:18.631Z,27.04
2022-08-11T17:16:18.612Z,27.72
2022-08-11T17:17:18.644Z,26.74
2022-08-11T17:18:18.596Z,26.64
2022-08-11T17:19:18.607Z,27.14
2022-08-11T17:20:45.704Z,26.84
2022-08-11T17:21:18.588Z,26.93
2022-08-11T17:22:18.561Z,26.35
2022-08-11T17:23:18.544Z,27.23
2022-08-11T17:24:18.546Z,27.74
2022-08-11T17:25:18.518Z,27.54
2022-08-11T17:26:18.508Z,27.66
2022-08-11T17:27:18.499Z,29.13
2022-08-11T17:28:18.499Z,28.05
2022-08-11T17:29:18.497Z,27.95
2022-08-11T17:30:18.465Z,27.47
2022-08-11T17:31:22.716Z,27.27
2022-08-11T17:32:18.443Z,27.76
2022-08-11T17:33:18.441Z,27.96
2022-08-11T17:34:18.547Z,27.87
2022-08-11T17:35:18.417Z,27.39
2022-08-11T17:36:18.408Z,28.47
2022-08-11T17:37:18.401Z,28.86
2022-08-11T17:38:18.381Z,28.96
2022-08-11T17:39:18.442Z,27.68
2022-08-11T17:40:18.368Z,27.58
2022-08-11T17:41:23.177Z,28.56